createdAt,value
2022-10-13T00:00:20.213Z,13.82
2022-10-13T00:02:43.472Z,14.10
2022-10-13T00:05:07.307Z,13.85
2022-10-13T00:07:30.494Z,13.93
2022-10-13T00:09:55.025Z,13.15
2022-10-13T00:12:18.487Z,14.77
2022-10-13T00:14:42.005Z,13.68
2022-10-13T00:17:05.307Z,13.57
2022-10-13T00:19:31.581Z,14.40
2022-10-13T00:21:54.834Z,12.77
2022-10-13T00:24:18.050Z,13.02
2022-10-13T00:26:42.667Z,13.93
2022-10-13T00:29:08.392Z,13.65
2022-10-13T00:31:33.158Z,13.98
2022-10-13T00:33:57.816Z,13.52
2022-10-13T00:36:22.040Z,13.18
2022-10-13T00:38:45.436Z,13.05
2022-10-13T00:41:09.276Z,13.52
2022-10-13T00:43:58.165Z,14.65
2022-10-13T00:46:22.117Z,12.90
2022-10-13T00:48:53.574Z,13.52
2022-10-13T00:51:20.323Z,13.75
2022-10-13T00:53:44.992Z,14.68
2022-10-13T00:56:11.496Z,14.48
2022-10-13T00:58:38.169Z,13.43
2022-10-13T01:01:03.661Z,14.38
2022-10-13T01:03:27.780Z,13.77
2022-10-13T01:05:53.015Z,13.73
2022-10-13T01:08:17.787Z,13.68
2022-10-13T01:10:54.476Z,13.18
2022-10-13T01:13:30.873Z,14.27
2022-10-13T01:16:12.057Z,14.60
2022-10-13T01:18:44.806Z,15.77
2022-10-13T01:21:19.884Z,14.80
2022-10-13T01:24:29.920Z,15.85
2022-10-13T01:27:33.816Z,16.92
2022-10-13T01:30:16.723Z,17.23
2022-10-13T01:33:10.720Z,21.50
2022-10-13T01:35:50.538Z,20.40
2022-10-13T01:38:26.162Z,22.13
2022-10-13T01:40:57.332Z,22.67
2022-10-13T01:43:26.161Z,21.38
2022-10-13T01:45:56.645Z,22.15
2022-10-13T01:48:21.403Z,20.45
2022-10-13T01:50:48.937Z,23.48
2022-10-13T01:53:13.687Z,20.88
2022-10-13T01:55:37.305Z,23.52
2022-10-13T01:58:00.599Z,23.92
2022-10-13T02:00:24.767Z,23.25
2022-10-13T02:03:02.404Z,25.23
2022-10-13T02:05:35.412Z,24.42
2022-10-13T02:08:04.611Z,23.15
2022-10-13T02:10:34.379Z,22.63
2022-10-13T02:13:01.414Z,22.92
2022-10-13T02:15:29.868Z,23.90
2022-10-13T02:17:58.667Z,21.50
2022-10-13T02:20:22.494Z,20.50
2022-10-13T02:22:48.723Z,21.35
2022-10-13T02:25:12.340Z,20.95
2022-10-13T02:27:35.869Z,18.75
2022-10-13T02:29:59.534Z,20.35
2022-10-13T02:32:26.266Z,18.98
2022-10-13T02:34:52.440Z,19.02
2022-10-13T02:37:15.677Z,17.20
2022-10-13T02:39:38.929Z,19.45
2022-10-13T02:42:02.251Z,20.73
2022-10-13T02:44:25.867Z,19.15
2022-10-13T02:46:49.081Z,17.20
2022-10-13T02:49:12.424Z,16.17
2022-10-13T02:51:40.077Z,15.32
2022-10-13T02:54:03.884Z,15.80
2022-10-13T02:56:27.348Z,16.55
2022-10-13T02:58:50.542Z,16.08
2022-10-13T03:01:16.019Z,15.38
2022-10-13T03:03:40.109Z,16.35
2022-10-13T03:06:04.127Z,15.65
2022-10-13T03:08:29.191Z,15.38
2022-10-13T03:10:52.379Z,15.95
2022-10-13T03:13:15.988Z,17.52
2022-10-13T03:15:39.289Z,15.45
2022-10-13T03:18:05.056Z,15.02
2022-10-13T03:20:28.387Z,14.75
2022-10-13T03:22:51.599Z,14.10
2022-10-13T03:25:16.424Z,15.60
2022-10-13T03:27:39.965Z,14.60
2022-10-13T03:30:03.652Z,15.25
2022-10-13T03:32:31.641Z,14.98
2022-10-13T03:34:54.856Z,15.18
2022-10-13T03:37:18.319Z,16.63
2022-10-13T03:39:41.850Z,16.08
2022-10-13T03:42:07.573Z,14.35
2022-10-13T03:44:30.956Z,15.50
2022-10-13T03:46:54.314Z,15.65
2022-10-13T03:49:18.817Z,15.43
2022-10-13T03:51:42.326Z,15.55
2022-10-13T03:54:05.877Z,15.65
2022-10-13T03:56:29.796Z,15.10
2022-10-13T03:58:55.421Z,15.70
2022-10-13T04:01:18.726Z,15.38
2022-10-13T04:03:42.882Z,15.50
2022-10-13T04:06:07.725Z,13.77
2022-10-13T04:08:31.493Z,14.32
2022-10-13T04:11:00.376Z,14.65
2022-10-13T04:13:23.668Z,15.15
2022-10-13T04:15:49.627Z,15.80
2022-10-13T04:18:13.273Z,17.02
2022-10-13T04:20:40.076Z,15.05
2022-10-13T04:23:03.285Z,15.18
2022-10-13T04:25:26.716Z,14.85
2022-10-13T04:27:50.393Z,15.25
2022-10-13T04:30:14.087Z,16.05
2022-10-13T04:32:38.858Z,16.27
2022-10-13T04:35:02.113Z,16.42
2022-10-13T04:37:25.632Z,15.50
2022-10-13T04:39:48.869Z,16.75
2022-10-13T04:42:12.087Z,15.75
2022-10-13T04:44:35.443Z,16.95
2022-10-13T04:47:01.386Z,14.82
2022-10-13T04:49:26.440Z,18.15
2022-10-13T04:51:49.616Z,15.52
2022-10-13T04:54:13.086Z,17.88
2022-10-13T04:56:36.358Z,15.85
2022-10-13T04:58:59.771Z,15.48
2022-10-13T05:01:25.652Z,16.65
2022-10-13T05:03:49.107Z,16.45
2022-10-13T05:06:17.994Z,15.43
2022-10-13T05:08:44.815Z,16.58
2022-10-13T05:11:10.416Z,13.88
2022-10-13T05:13:33.719Z,14.55
2022-10-13T05:15:57.178Z,14.93
2022-10-13T05:18:20.860Z,15.48
2022-10-13T05:20:44.140Z,16.15
2022-10-13T05:23:08.812Z,16.05
2022-10-13T05:25:34.004Z,16.70
2022-10-13T05:27:57.359Z,17.13
2022-10-13T05:30:20.626Z,15.68
2022-10-13T05:32:43.778Z,16.27
2022-10-13T05:35:08.106Z,17.23
2022-10-13T05:37:31.444Z,18.25
2022-10-13T05:39:55.981Z,21.05
2022-10-13T05:42:19.535Z,17.75
2022-10-13T05:44:43.001Z,17.88
2022-10-13T05:47:07.669Z,16.85
2022-10-13T05:49:31.169Z,16.63
2022-10-13T05:51:57.576Z,16.25
2022-10-13T05:54:25.433Z,17.20
2022-10-13T05:56:54.330Z,16.10
2022-10-13T05:59:26.073Z,17.35
2022-10-13T06:01:50.728Z,16.15
2022-10-13T06:04:19.864Z,17.63
2022-10-13T06:06:43.092Z,17.17
2022-10-13T06:09:06.300Z,17.40
2022-10-13T06:11:29.643Z,16.25
2022-10-13T06:13:54.304Z,17.08
2022-10-13T06:16:17.546Z,17.33
2022-10-13T06:18:40.861Z,15.93
2022-10-13T06:21:04.299Z,17.75
2022-10-13T06:23:27.604Z,16.90
2022-10-13T06:25:51.795Z,16.35
2022-10-13T06:28:15.047Z,15.82
2022-10-13T06:30:39.789Z,15.85
2022-10-13T06:33:03.118Z,16.30
2022-10-13T06:35:27.664Z,15.52
2022-10-13T06:37:51.004Z,15.88
2022-10-13T06:40:14.340Z,16.00
2022-10-13T06:42:37.623Z,16.88
2022-10-13T06:45:07.811Z,15.73
2022-10-13T06:47:32.427Z,14.73
2022-10-13T06:49:55.659Z,15.63
2022-10-13T06:52:19.296Z,14.60
2022-10-13T06:54:42.821Z,16.65
2022-10-13T06:57:07.640Z,16.52
2022-10-13T06:59:31.560Z,15.50
2022-10-13T07:01:54.939Z,15.73
2022-10-13T07:04:19.755Z,15.13
2022-10-13T07:06:43.247Z,16.58
2022-10-13T07:09:07.678Z,16.35
2022-10-13T07:11:31.070Z,14.98
2022-10-13T07:13:55.787Z,15.38
2022-10-13T07:16:19.082Z,16.08
2022-10-13T07:18:42.572Z,18.08
2022-10-13T07:21:07.689Z,16.45
2022-10-13T07:23:31.691Z,16.45
2022-10-13T07:25:56.921Z,15.55
2022-10-13T07:28:20.746Z,16.58
2022-10-13T07:30:45.040Z,16.05
2022-10-13T07:33:08.624Z,17.00
2022-10-13T07:35:32.020Z,16.73
2022-10-13T07:37:56.827Z,16.75
2022-10-13T07:40:20.319Z,16.98
2022-10-13T07:42:43.607Z,16.30
2022-10-13T07:45:08.748Z,17.05
2022-10-13T07:47:32.448Z,17.08
2022-10-13T07:49:55.728Z,16.10
2022-10-13T07:52:19.640Z,16.70
2022-10-13T07:54:44.628Z,16.13
2022-10-13T07:57:09.038Z,15.45
2022-10-13T07:59:34.058Z,14.57
2022-10-13T08:01:57.403Z,16.20
2022-10-13T08:04:20.623Z,14.88
2022-10-13T08:06:43.897Z,14.68
2022-10-13T08:09:07.343Z,14.90
2022-10-13T08:11:32.441Z,14.82
2022-10-13T08:13:55.997Z,15.27
2022-10-13T08:16:20.648Z,15.73
2022-10-13T08:18:44.164Z,14.70
2022-10-13T08:23:58.173Z,14.70
2022-10-13T08:26:24.963Z,14.52
2022-10-13T08:29:09.514Z,14.27
2022-10-13T08:31:33.212Z,14.88
2022-10-13T08:33:56.849Z,13.82
2022-10-13T08:36:20.983Z,12.93
2022-10-13T08:38:44.733Z,13.95
2022-10-13T08:41:18.175Z,14.30
2022-10-13T08:44:27.912Z,13.15
2022-10-13T08:46:59.259Z,13.18
2022-10-13T08:49:22.747Z,13.40
2022-10-13T08:51:46.353Z,12.68
2022-10-13T08:54:12.275Z,12.65
2022-10-13T08:56:36.737Z,11.77
2022-10-13T08:59:03.312Z,12.52
2022-10-13T09:01:31.234Z,12.93
2022-10-13T09:03:57.401Z,12.77
2022-10-13T09:06:28.447Z,12.30
2022-10-13T09:08:57.736Z,12.85
2022-10-13T09:11:21.860Z,12.77
2022-10-13T09:13:45.227Z,11.73
2022-10-13T09:16:10.463Z,12.35
2022-10-13T09:18:35.530Z,12.40
2022-10-13T09:21:16.560Z,12.70
2022-10-13T09:23:41.888Z,12.55
2022-10-13T09:26:11.141Z,12.43
2022-10-13T09:28:35.377Z,12.23
2022-10-13T09:31:16.931Z,11.93
2022-10-13T09:33:40.211Z,12.00
2022-10-13T09:36:15.498Z,12.55
2022-10-13T09:38:41.288Z,11.45
2022-10-13T09:41:07.703Z,11.50
2022-10-13T09:43:35.131Z,12.32
2022-10-13T09:45:59.702Z,12.52
2022-10-13T09:48:28.884Z,12.40
2022-10-13T09:50:56.188Z,10.93
2022-10-13T09:53:29.168Z,11.30
2022-10-13T09:56:19.047Z,11.13
2022-10-13T09:58:50.059Z,11.20
2022-10-13T10:01:24.208Z,10.77
2022-10-13T10:03:50.554Z,11.90
2022-10-13T10:06:19.066Z,10.75
2022-10-13T10:09:02.834Z,10.95
2022-10-13T10:11:30.972Z,10.68
2022-10-13T10:13:55.810Z,10.55
2022-10-13T10:16:30.130Z,10.75
2022-10-13T10:19:01.622Z,10.70
2022-10-13T10:21:33.281Z,10.63
2022-10-13T10:24:08.870Z,10.13
2022-10-13T10:26:47.354Z,9.95
2022-10-13T10:29:26.056Z,10.52
2022-10-13T10:32:15.223Z,9.60
2022-10-13T10:34:48.823Z,9.85
2022-10-13T10:37:22.710Z,10.10
2022-10-13T10:40:01.393Z,10.02
2022-10-13T10:43:18.632Z,9.63
2022-10-13T10:45:42.312Z,9.65
2022-10-13T10:48:15.832Z,10.35
2022-10-13T10:50:41.080Z,10.25
2022-10-13T10:53:09.785Z,10.27
2022-10-13T10:55:37.445Z,9.88
2022-10-13T10:58:16.041Z,10.02
2022-10-13T11:00:48.614Z,10.15
2022-10-13T11:03:27.214Z,9.32
2022-10-13T11:06:06.474Z,9.15
2022-10-13T11:08:40.935Z,9.43
2022-10-13T11:11:39.730Z,9.38
2022-10-13T11:14:30.702Z,9.45
2022-10-13T11:17:20.808Z,9.15
2022-10-13T11:19:44.205Z,8.57
2022-10-13T11:22:21.470Z,8.18
2022-10-13T11:25:39.345Z,8.15
2022-10-13T11:28:47.854Z,7.00
2022-10-13T11:32:04.713Z,7.00
2022-10-13T11:34:31.763Z,5.80
2022-10-13T11:37:01.822Z,6.40
2022-10-13T11:40:05.012Z,6.07
2022-10-13T11:43:05.324Z,7.00
2022-10-13T11:46:12.325Z,6.45
2022-10-13T11:49:33.041Z,6.25
2022-10-13T11:52:19.465Z,7.07
2022-10-13T11:54:51.684Z,6.80
2022-10-13T11:57:24.671Z,6.85
2022-10-13T11:59:51.537Z,6.97
2022-10-13T12:02:19.781Z,6.70
2022-10-13T12:04:46.753Z,6.97
2022-10-13T12:07:13.237Z,7.10
2022-10-13T12:09:51.222Z,7.53
2022-10-13T12:12:19.221Z,7.38
2022-10-13T12:14:45.047Z,7.35
2022-10-13T12:17:24.131Z,8.07
2022-10-13T12:19:47.628Z,7.82
2022-10-13T12:22:14.913Z,7.18
2022-10-13T12:24:38.444Z,7.22
2022-10-13T12:27:12.054Z,6.82
2022-10-13T12:29:37.470Z,7.68
2022-10-13T12:32:00.859Z,7.22
2022-10-13T12:34:28.016Z,7.45
2022-10-13T12:36:59.423Z,7.30
2022-10-13T12:39:25.069Z,7.30
2022-10-13T12:41:50.086Z,7.75
2022-10-13T12:44:19.746Z,7.78
2022-10-13T12:46:45.368Z,8.02
2022-10-13T12:49:14.770Z,7.72
2022-10-13T12:51:39.463Z,7.32
2022-10-13T12:54:09.142Z,7.18
2022-10-13T12:56:34.273Z,7.28
2022-10-13T12:58:59.002Z,7.65
2022-10-13T13:01:32.522Z,7.68
2022-10-13T13:03:59.528Z,6.80
2022-10-13T13:06:33.887Z,8.07
2022-10-13T13:09:31.564Z,8.40
2022-10-13T13:12:28.429Z,6.82
2022-10-13T13:14:54.969Z,7.13
2022-10-13T13:17:56.604Z,7.15
2022-10-13T13:20:27.878Z,7.03
2022-10-13T13:22:51.871Z,6.95
2022-10-13T13:25:16.598Z,6.80
2022-10-13T13:27:41.719Z,6.72
2022-10-13T13:30:07.533Z,7.15
2022-10-13T13:32:32.267Z,7.25
2022-10-13T13:34:55.978Z,6.47
2022-10-13T13:37:29.251Z,6.65
2022-10-13T13:39:52.668Z,6.68
2022-10-13T13:42:16.300Z,6.80
2022-10-13T13:44:39.719Z,7.40
2022-10-13T13:47:02.979Z,7.18
2022-10-13T13:49:28.399Z,7.53
2022-10-13T13:51:51.630Z,7.32
2022-10-13T13:54:14.836Z,8.23
2022-10-13T13:56:38.866Z,7.95
2022-10-13T13:59:02.127Z,8.52
2022-10-13T14:01:25.812Z,8.75
2022-10-13T14:03:49.141Z,8.50
2022-10-13T14:06:20.339Z,8.98
2022-10-13T14:08:43.648Z,9.75
2022-10-13T14:11:08.096Z,9.73
2022-10-13T14:13:31.341Z,9.35
2022-10-13T14:15:58.847Z,9.10
2022-10-13T14:18:22.071Z,9.70
2022-10-13T14:20:45.425Z,10.43
2022-10-13T14:23:10.119Z,9.55
2022-10-13T14:25:34.308Z,9.57
2022-10-13T14:27:57.557Z,10.93
2022-10-13T14:30:20.985Z,10.75
2022-10-13T14:32:44.326Z,11.32
2022-10-13T14:35:08.700Z,10.50
2022-10-13T14:37:33.578Z,13.02
2022-10-13T14:39:58.689Z,11.77
2022-10-13T14:42:22.020Z,12.63
2022-10-13T14:44:45.685Z,12.23
2022-10-13T14:47:09.121Z,11.73
2022-10-13T14:49:32.364Z,11.98
2022-10-13T14:51:55.629Z,13.38
2022-10-13T14:54:19.022Z,11.43
2022-10-13T14:56:44.553Z,11.98
2022-10-13T14:59:08.916Z,10.93
2022-10-13T15:01:35.622Z,10.52
2022-10-13T15:03:58.937Z,11.02
2022-10-13T15:06:24.249Z,11.25
2022-10-13T15:08:48.471Z,11.18
2022-10-13T15:11:12.880Z,12.02
2022-10-13T15:13:37.944Z,14.90
2022-10-13T15:16:02.444Z,16.70
2022-10-13T15:18:29.175Z,18.05
2022-10-13T15:20:54.773Z,20.48
2022-10-13T15:23:18.305Z,20.52
2022-10-13T15:25:46.370Z,19.10
2022-10-13T15:28:11.025Z,19.45
2022-10-13T15:30:36.148Z,23.05
2022-10-13T15:33:05.281Z,20.30
2022-10-13T15:35:31.115Z,17.80
2022-10-13T15:37:54.591Z,20.63
2022-10-13T15:40:18.287Z,17.92
2022-10-13T15:42:41.580Z,17.85
2022-10-13T15:45:12.513Z,19.65
2022-10-13T15:47:37.242Z,17.33
2022-10-13T15:50:00.528Z,18.15
2022-10-13T15:52:24.273Z,17.27
2022-10-13T15:54:51.237Z,15.20
2022-10-13T15:57:14.602Z,15.07
2022-10-13T15:59:37.928Z,18.00
2022-10-13T16:02:01.236Z,22.30
2022-10-13T16:04:26.128Z,27.40
2022-10-13T16:06:49.355Z,26.45
2022-10-13T16:09:12.560Z,25.75
2022-10-13T16:11:35.872Z,30.23
2022-10-13T16:13:59.136Z,27.63
2022-10-13T16:16:23.060Z,28.55
2022-10-13T16:18:46.784Z,24.65
2022-10-13T16:21:18.270Z,25.00
2022-10-13T16:23:42.031Z,19.42
2022-10-13T16:26:06.572Z,18.00
2022-10-13T16:28:29.978Z,18.55
2022-10-13T16:30:53.225Z,16.95
2022-10-13T16:33:16.508Z,16.92
2022-10-13T16:35:39.801Z,16.30
2022-10-13T16:38:04.843Z,14.70
2022-10-13T16:40:28.244Z,14.77
2022-10-13T16:42:51.481Z,14.90
2022-10-13T16:45:14.922Z,14.60
2022-10-13T16:47:38.203Z,12.48
2022-10-13T16:50:01.757Z,14.63
2022-10-13T16:52:25.356Z,13.98
2022-10-13T16:54:49.994Z,11.85
2022-10-13T16:57:13.248Z,11.60
2022-10-13T16:59:36.485Z,12.10
2022-10-13T17:01:59.913Z,14.88
2022-10-13T17:04:23.134Z,13.60
2022-10-13T17:06:46.579Z,13.40
2022-10-13T17:09:11.488Z,13.20
2022-10-13T17:11:38.378Z,14.65
2022-10-13T17:14:03.528Z,13.65
2022-10-13T17:16:28.649Z,15.80
2022-10-13T17:18:51.965Z,15.80
2022-10-13T17:21:17.479Z,13.48
2022-10-13T17:23:45.904Z,14.27
2022-10-13T17:26:14.507Z,13.25
2022-10-13T17:28:41.188Z,13.82
2022-10-13T17:31:06.940Z,13.63
2022-10-13T17:33:31.785Z,13.57
2022-10-13T17:36:00.587Z,15.10
2022-10-13T17:38:24.634Z,12.20
2022-10-13T17:40:47.829Z,13.18
2022-10-13T17:43:11.084Z,14.00
2022-10-13T17:45:36.401Z,13.77
2022-10-13T17:47:59.935Z,14.38
2022-10-13T17:50:27.546Z,13.63
2022-10-13T17:52:50.787Z,14.23
2022-10-13T17:55:14.025Z,13.35
2022-10-13T17:57:37.266Z,13.82
2022-10-13T18:00:04.051Z,13.50
2022-10-13T18:02:37.331Z,12.25
2022-10-13T18:05:00.540Z,13.20
2022-10-13T18:07:23.850Z,15.15
2022-10-13T18:09:47.140Z,12.23
2022-10-13T18:12:12.178Z,12.10
2022-10-13T18:14:35.406Z,12.75
2022-10-13T18:16:58.706Z,12.45
2022-10-13T18:19:23.969Z,17.20
2022-10-13T18:21:47.266Z,15.45
2022-10-13T18:24:11.649Z,14.20
2022-10-13T18:26:35.896Z,14.77
2022-10-13T18:29:00.109Z,13.18
2022-10-13T18:31:28.308Z,14.40
2022-10-13T18:33:53.588Z,17.30
2022-10-13T18:36:20.779Z,16.45
2022-10-13T18:38:44.112Z,18.40
2022-10-13T18:41:07.454Z,17.63
2022-10-13T18:43:31.659Z,19.45
2022-10-13T18:45:54.851Z,21.42
2022-10-13T18:48:18.142Z,19.35
2022-10-13T18:50:41.743Z,23.67
2022-10-13T18:53:06.614Z,21.10
2022-10-13T18:55:30.077Z,21.67
2022-10-13T18:57:53.816Z,20.92
2022-10-13T19:00:17.688Z,21.58
2022-10-13T19:02:41.365Z,20.58
2022-10-13T19:05:04.798Z,17.10
2022-10-13T19:07:28.045Z,21.02
2022-10-13T19:09:56.300Z,20.10
2022-10-13T19:12:19.518Z,21.05
2022-10-13T19:14:42.781Z,20.45
2022-10-13T19:17:06.045Z,22.83
2022-10-13T19:19:30.282Z,21.00
2022-10-13T19:21:54.159Z,20.27
2022-10-13T19:24:17.408Z,20.30
2022-10-13T19:26:42.252Z,22.58
2022-10-13T19:29:08.633Z,20.98
2022-10-13T19:31:34.632Z,20.48
2022-10-13T19:34:03.573Z,21.05
2022-10-13T19:36:30.863Z,18.55
2022-10-13T19:38:57.171Z,21.90
2022-10-13T19:41:20.476Z,19.60
2022-10-13T19:43:45.093Z,19.58
2022-10-13T19:46:10.261Z,21.52
2022-10-13T19:48:33.670Z,19.90
2022-10-13T19:50:56.968Z,19.92
2022-10-13T19:53:20.751Z,20.75
2022-10-13T19:55:46.438Z,19.77
2022-10-13T19:58:09.833Z,20.50
2022-10-13T20:00:34.672Z,21.58
2022-10-13T20:02:57.941Z,20.67
2022-10-13T20:05:25.396Z,18.80
2022-10-13T20:07:48.849Z,16.90
2022-10-13T20:10:12.457Z,17.30
2022-10-13T20:12:35.679Z,16.85
2022-10-13T20:14:58.923Z,15.52
2022-10-13T20:17:23.808Z,13.60
2022-10-13T20:19:47.318Z,14.68
2022-10-13T20:22:10.516Z,14.57
2022-10-13T20:24:33.975Z,13.55
2022-10-13T20:26:57.372Z,13.20
2022-10-13T20:29:21.198Z,13.40
2022-10-13T20:31:46.233Z,13.40
2022-10-13T20:34:12.543Z,12.02
2022-10-13T20:36:38.848Z,11.85
2022-10-13T20:39:03.075Z,13.90
2022-10-13T20:41:29.411Z,12.15
2022-10-13T20:43:54.644Z,12.35
2022-10-13T20:46:20.228Z,12.40
2022-10-13T20:49:09.378Z,11.68
2022-10-13T20:51:29.634Z,10.82
2022-10-13T20:53:53.248Z,10.35
2022-10-13T20:56:19.984Z,10.50
2022-10-13T20:58:43.785Z,10.45
2022-10-13T21:01:07.482Z,11.20
2022-10-13T21:03:32.749Z,11.15
2022-10-13T21:06:04.453Z,10.43
2022-10-13T21:08:29.697Z,10.07
2022-10-13T21:10:53.282Z,10.10
2022-10-13T21:13:18.800Z,9.23
2022-10-13T21:15:44.822Z,9.90
2022-10-13T21:18:09.816Z,10.70
2022-10-13T21:20:36.553Z,10.35
2022-10-13T21:23:00.039Z,10.85
2022-10-13T21:25:24.768Z,11.07
2022-10-13T21:27:50.389Z,11.35
2022-10-13T21:30:14.461Z,10.80
2022-10-13T21:32:38.037Z,10.90
2022-10-13T21:35:01.608Z,12.05
2022-10-13T21:37:24.853Z,10.10
2022-10-13T21:39:49.151Z,11.70
2022-10-13T21:42:13.747Z,11.52
2022-10-13T21:44:36.966Z,12.10
2022-10-13T21:47:02.773Z,13.13
2022-10-13T21:49:26.015Z,12.50
2022-10-13T21:51:49.228Z,12.90
2022-10-13T21:54:15.123Z,13.60
2022-10-13T21:56:40.013Z,13.07
2022-10-13T21:59:05.993Z,11.82
2022-10-13T22:01:29.555Z,12.88
2022-10-13T22:03:57.902Z,14.18
2022-10-13T22:06:22.160Z,12.20
2022-10-13T22:08:48.844Z,13.88
2022-10-13T22:11:18.706Z,12.75
2022-10-13T22:13:42.315Z,14.93
2022-10-13T22:16:10.117Z,13.27
2022-10-13T22:18:37.321Z,13.48
2022-10-13T22:21:02.806Z,14.07
2022-10-13T22:23:26.148Z,13.93
2022-10-13T22:25:49.397Z,13.18
2022-10-13T22:28:12.760Z,13.48
2022-10-13T22:30:37.695Z,14.48
2022-10-13T22:33:06.485Z,15.20
2022-10-13T22:35:29.796Z,15.07
2022-10-13T22:37:52.972Z,15.65
2022-10-13T22:40:16.982Z,14.85
2022-10-13T22:42:40.177Z,14.77
2022-10-13T22:45:03.397Z,15.48
2022-10-13T22:47:26.710Z,16.00
2022-10-13T22:49:51.708Z,14.80
2022-10-13T22:52:15.201Z,15.63
2022-10-13T22:54:38.640Z,14.32
2022-10-13T22:57:01.870Z,14.82
2022-10-13T22:59:25.120Z,15.85
2022-10-13T23:01:48.412Z,15.43
2022-10-13T23:04:11.600Z,14.70
2022-10-13T23:06:36.891Z,14.15
2022-10-13T23:09:03.617Z,13.75
2022-10-13T23:11:26.860Z,14.00
2022-10-13T23:13:51.199Z,16.23
2022-10-13T23:16:19.066Z,15.50
2022-10-13T23:18:42.543Z,13.95
2022-10-13T23:21:20.807Z,13.35
2022-10-13T23:23:46.327Z,15.30
2022-10-13T23:26:12.380Z,14.38
2022-10-13T23:28:36.063Z,14.98
2022-10-13T23:31:01.659Z,17.27
2022-10-13T23:33:24.931Z,15.20
2022-10-13T23:35:55.775Z,15.88
2022-10-13T23:38:19.026Z,15.98
2022-10-13T23:40:43.627Z,14.48
2022-10-13T23:43:06.855Z,15.80
2022-10-13T23:45:30.868Z,14.50
2022-10-13T23:47:54.085Z,14.73
2022-10-13T23:50:18.598Z,13.85
2022-10-13T23:52:41.797Z,15.48
2022-10-13T23:55:05.923Z,15.02
2022-10-13T23:57:31.859Z,16.55
2022-10-13T23:59:55.091Z,16.33
